createdAt,value
2018-11-03T00:01:16.867Z,11.38
2018-11-03T00:03:44.058Z,11.65
2018-11-03T00:06:11.260Z,11.93
2018-11-03T00:08:38.446Z,11.53
2018-11-03T00:11:05.632Z,10.98
2018-11-03T00:13:32.826Z,11.75
2018-11-03T00:16:00.025Z,11.55
2018-11-03T00:18:27.244Z,12.15
2018-11-03T00:20:54.428Z,12.50
2018-11-03T00:23:21.638Z,10.75
2018-11-03T00:25:48.818Z,12.45
2018-11-03T00:28:16.000Z,12.33
2018-11-03T00:30:43.187Z,12.65
2018-11-03T00:33:10.391Z,13.70
2018-11-03T00:35:37.565Z,13.05
2018-11-03T00:38:04.966Z,13.15
2018-11-03T00:40:32.190Z,11.55
2018-11-03T00:42:59.342Z,12.60
2018-11-03T00:45:26.537Z,12.58
2018-11-03T00:47:53.722Z,13.10
2018-11-03T00:50:20.922Z,13.15
2018-11-03T00:52:48.120Z,11.70
2018-11-03T00:55:15.319Z,12.15
2018-11-03T00:57:42.965Z,11.95
2018-11-03T01:00:11.584Z,12.88
2018-11-03T01:02:39.120Z,12.53
2018-11-03T01:05:06.715Z,12.30
2018-11-03T01:07:34.160Z,11.83
2018-11-03T01:10:01.331Z,11.70
2018-11-03T01:12:28.517Z,11.88
2018-11-03T01:14:55.714Z,13.75
2018-11-03T01:17:22.892Z,11.22
2018-11-03T01:19:50.078Z,10.23
2018-11-03T01:22:17.292Z,10.25
2018-11-03T01:24:44.490Z,10.18
2018-11-03T01:27:11.671Z,11.28
2018-11-03T01:29:38.870Z,11.28
2018-11-03T01:32:06.063Z,11.78
2018-11-03T01:34:33.271Z,10.03
2018-11-03T01:37:00.464Z,9.50
2018-11-03T01:39:27.648Z,9.38
2018-11-03T01:41:54.847Z,10.72
2018-11-03T01:44:22.045Z,10.20
2018-11-03T01:46:49.243Z,10.20
2018-11-03T01:49:16.477Z,10.80
2018-11-03T01:51:43.677Z,11.35
2018-11-03T01:54:10.860Z,10.68
2018-11-03T01:56:38.181Z,10.63
2018-11-03T01:59:05.358Z,11.90
2018-11-03T02:01:32.638Z,11.88
2018-11-03T02:03:59.811Z,11.08
2018-11-03T02:06:26.990Z,11.10
2018-11-03T02:08:54.180Z,12.10
2018-11-03T02:11:21.353Z,13.43
2018-11-03T02:13:48.527Z,13.20
2018-11-03T02:16:15.742Z,13.25
2018-11-03T02:18:42.927Z,12.65
2018-11-03T02:21:10.151Z,13.00
2018-11-03T02:23:37.339Z,12.28
2018-11-03T02:26:04.709Z,13.05
2018-11-03T02:28:31.901Z,11.60
2018-11-03T02:30:59.074Z,13.28
2018-11-03T02:33:26.269Z,12.90
2018-11-03T02:35:53.460Z,11.93
2018-11-03T02:38:20.638Z,12.35
2018-11-03T02:40:47.832Z,10.95
2018-11-03T02:43:15.106Z,10.98
2018-11-03T02:45:42.280Z,11.55
2018-11-03T02:48:09.466Z,12.55
2018-11-03T02:50:36.645Z,12.73
2018-11-03T02:53:04.149Z,11.43
2018-11-03T02:55:31.334Z,11.90
2018-11-03T02:57:58.526Z,12.75
2018-11-03T03:00:25.719Z,12.05
2018-11-03T03:02:52.913Z,11.55
2018-11-03T03:05:20.090Z,12.75
2018-11-03T03:07:47.267Z,13.03
2018-11-03T03:10:14.469Z,12.78
2018-11-03T03:12:41.655Z,13.25
2018-11-03T03:15:09.840Z,13.55
2018-11-03T03:17:37.068Z,12.58
2018-11-03T03:20:04.887Z,13.10
2018-11-03T03:22:32.076Z,14.03
2018-11-03T03:24:59.254Z,12.20
2018-11-03T03:27:26.621Z,12.47
2018-11-03T03:29:53.824Z,13.05
2018-11-03T03:32:21.135Z,12.23
2018-11-03T03:34:48.205Z,12.58
2018-11-03T03:37:15.394Z,12.20
2018-11-03T03:39:42.587Z,13.48
2018-11-03T03:42:09.878Z,12.15
2018-11-03T03:44:37.067Z,11.50
2018-11-03T03:47:04.272Z,13.15
2018-11-03T03:49:31.463Z,11.48
2018-11-03T03:51:58.655Z,13.22
2018-11-03T03:54:25.836Z,11.28
2018-11-03T03:56:53.007Z,12.07
2018-11-03T03:59:20.196Z,13.25
2018-11-03T04:01:47.387Z,11.40
2018-11-03T04:04:14.562Z,11.30
2018-11-03T04:06:41.753Z,11.50
2018-11-03T04:09:09.605Z,13.08
2018-11-03T04:11:36.792Z,13.50
2018-11-03T04:14:04.023Z,12.28
2018-11-03T04:16:31.224Z,12.10
2018-11-03T04:18:58.416Z,11.78
2018-11-03T04:21:27.917Z,12.90
2018-11-03T04:23:55.202Z,11.68
2018-11-03T04:26:22.416Z,12.00
2018-11-03T04:28:49.710Z,10.38
2018-11-03T04:31:16.894Z,9.88
2018-11-03T04:33:44.358Z,9.23
2018-11-03T04:36:11.568Z,9.60
2018-11-03T04:38:38.754Z,10.58
2018-11-03T04:41:05.945Z,9.35
2018-11-03T04:43:33.123Z,9.68
2018-11-03T04:46:00.313Z,10.13
2018-11-03T04:48:27.507Z,9.93
2018-11-03T04:50:54.691Z,9.68
2018-11-03T04:53:21.888Z,10.72
2018-11-03T04:55:49.317Z,10.70
2018-11-03T04:58:16.504Z,11.28
2018-11-03T05:00:43.684Z,10.72
2018-11-03T05:03:10.879Z,11.53
2018-11-03T05:05:38.051Z,11.03
2018-11-03T05:08:05.371Z,10.35
2018-11-03T05:10:32.741Z,10.70
2018-11-03T05:12:59.747Z,11.40
2018-11-03T05:15:26.918Z,9.58
2018-11-03T05:17:54.102Z,11.00
2018-11-03T05:20:21.274Z,12.30
2018-11-03T05:22:48.449Z,10.48
2018-11-03T05:25:15.667Z,10.30
2018-11-03T05:27:42.831Z,11.70
2018-11-03T05:30:10.016Z,11.65
2018-11-03T05:32:37.623Z,11.00
2018-11-03T05:35:05.515Z,9.00
2018-11-03T05:37:32.719Z,11.55
2018-11-03T05:39:59.910Z,11.53
2018-11-03T05:42:27.088Z,11.43
2018-11-03T05:44:54.283Z,9.53
2018-11-03T05:47:21.465Z,11.53
2018-11-03T05:49:48.691Z,10.23
2018-11-03T05:52:16.712Z,11.00
2018-11-03T05:54:43.904Z,10.48
2018-11-03T05:57:11.086Z,11.85
2018-11-03T05:59:38.314Z,11.95
2018-11-03T06:02:05.487Z,11.22
2018-11-03T06:04:32.662Z,11.95
2018-11-03T06:06:59.857Z,10.40
2018-11-03T06:09:27.044Z,10.28
2018-11-03T06:11:54.218Z,11.85
2018-11-03T06:14:21.386Z,10.60
2018-11-03T06:16:48.581Z,12.40
2018-11-03T06:19:15.764Z,11.75
2018-11-03T06:21:42.939Z,13.05
2018-11-03T06:24:10.147Z,11.73
2018-11-03T06:26:37.319Z,12.40
2018-11-03T06:29:04.642Z,12.55
2018-11-03T06:31:31.813Z,13.13
2018-11-03T06:33:59.039Z,12.65
2018-11-03T06:36:26.325Z,12.95
2018-11-03T06:38:53.853Z,12.78
2018-11-03T06:41:20.966Z,12.90
2018-11-03T06:43:48.163Z,10.68
2018-11-03T06:46:15.343Z,12.65
2018-11-03T06:48:43.555Z,11.10
2018-11-03T06:51:10.762Z,13.48
2018-11-03T06:53:37.941Z,13.93
2018-11-03T06:56:05.144Z,10.95
2018-11-03T06:58:32.374Z,12.60
2018-11-03T07:00:59.667Z,11.75
2018-11-03T07:03:26.855Z,12.40
2018-11-03T07:05:54.038Z,12.10
2018-11-03T07:08:21.310Z,12.15
2018-11-03T07:10:48.513Z,11.97
2018-11-03T07:13:15.810Z,11.80
2018-11-03T07:15:42.914Z,12.82
2018-11-03T07:18:10.102Z,12.33
2018-11-03T07:20:37.294Z,11.18
2018-11-03T07:23:04.650Z,14.03
2018-11-03T07:25:31.830Z,14.80
2018-11-03T07:27:59.026Z,13.03
2018-11-03T07:30:26.207Z,13.88
2018-11-03T07:32:53.447Z,11.70
2018-11-03T07:35:20.593Z,13.45
2018-11-03T07:37:47.792Z,13.20
2018-11-03T07:40:14.983Z,12.43
2018-11-03T07:42:42.391Z,13.22
2018-11-03T07:45:09.649Z,15.75
2018-11-03T07:47:36.985Z,11.50
2018-11-03T07:50:05.563Z,12.33
2018-11-03T07:52:32.755Z,12.47
2018-11-03T07:54:59.980Z,12.47
2018-11-03T07:57:27.194Z,12.73
2018-11-03T07:59:54.358Z,12.75
2018-11-03T08:02:21.560Z,14.23
2018-11-03T08:04:48.746Z,14.07
2018-11-03T08:07:15.944Z,13.40
2018-11-03T08:09:43.151Z,14.00
2018-11-03T08:12:10.347Z,13.60
2018-11-03T08:14:37.534Z,16.30
2018-11-03T08:17:04.732Z,18.15
2018-11-03T08:19:31.937Z,13.55
2018-11-03T08:21:59.119Z,15.78
2018-11-03T08:24:26.315Z,16.40
2018-11-03T08:26:53.519Z,16.60
2018-11-03T08:29:20.714Z,15.40
2018-11-03T08:31:47.924Z,17.30
2018-11-03T08:34:15.148Z,17.07
2018-11-03T08:36:42.332Z,18.50
2018-11-03T08:39:10.625Z,17.20
2018-11-03T08:41:37.829Z,16.55
2018-11-03T08:44:05.041Z,18.60
2018-11-03T08:46:32.222Z,18.20
2018-11-03T08:48:59.452Z,21.15
2018-11-03T08:51:26.627Z,17.27
2018-11-03T08:53:53.802Z,17.40
2018-11-03T08:56:21.009Z,17.73
2018-11-03T08:58:48.206Z,17.52
2018-11-03T09:01:15.391Z,17.05
2018-11-03T09:03:42.650Z,17.40
2018-11-03T09:06:09.830Z,18.05
2018-11-03T09:08:37.032Z,18.12
2018-11-03T09:11:04.378Z,17.15
2018-11-03T09:13:31.578Z,17.40
2018-11-03T09:15:58.772Z,19.52
2018-11-03T09:18:25.980Z,19.77
2018-11-03T09:20:53.208Z,19.85
2018-11-03T09:23:20.395Z,16.77
2018-11-03T09:25:47.714Z,19.30
2018-11-03T09:28:14.905Z,17.65
2018-11-03T09:30:42.084Z,18.00
2018-11-03T09:33:09.296Z,16.30
2018-11-03T09:35:36.487Z,16.85
2018-11-03T09:38:03.680Z,16.90
2018-11-03T09:40:30.886Z,17.65
2018-11-03T09:42:58.144Z,17.17
2018-11-03T09:45:25.298Z,17.55
2018-11-03T09:47:52.507Z,16.82
2018-11-03T09:50:19.729Z,16.60
2018-11-03T09:52:46.906Z,18.50
2018-11-03T09:55:18.432Z,15.50
2018-11-03T09:57:45.737Z,18.70
2018-11-03T10:00:15.366Z,17.00
2018-11-03T10:02:42.651Z,16.35
2018-11-03T10:05:11.211Z,16.50
2018-11-03T10:07:38.576Z,16.45
2018-11-03T10:10:06.714Z,17.12
2018-11-03T10:12:33.914Z,16.93
2018-11-03T10:15:01.193Z,17.50
2018-11-03T10:17:28.902Z,16.45
2018-11-03T10:19:56.855Z,16.17
2018-11-03T10:22:24.215Z,18.20
2018-11-03T10:24:51.964Z,17.10
2018-11-03T10:27:19.185Z,16.97
2018-11-03T10:29:46.367Z,16.90
2018-11-03T10:32:13.696Z,17.65
2018-11-03T10:34:40.884Z,17.52
2018-11-03T10:37:08.100Z,17.25
2018-11-03T10:39:35.320Z,17.92
2018-11-03T10:42:02.613Z,18.30
2018-11-03T10:44:30.502Z,16.87
2018-11-03T10:46:58.243Z,16.80
2018-11-03T10:49:25.554Z,18.90
2018-11-03T10:51:52.752Z,15.28
2018-11-03T10:54:19.979Z,16.37
2018-11-03T10:56:47.171Z,17.30
2018-11-03T10:59:15.138Z,17.57
2018-11-03T11:01:48.213Z,17.00
2018-11-03T11:04:21.038Z,17.15
2018-11-03T11:06:53.853Z,18.25
2018-11-03T11:09:26.602Z,17.40
2018-11-03T11:11:59.261Z,17.77
2018-11-03T11:14:26.464Z,16.45
2018-11-03T11:16:53.715Z,15.80
2018-11-03T11:19:20.880Z,15.50
2018-11-03T11:21:48.082Z,15.88
2018-11-03T11:24:15.598Z,16.40
2018-11-03T11:26:42.771Z,17.70
2018-11-03T11:29:10.155Z,18.30
2018-11-03T11:31:37.447Z,15.43
2018-11-03T11:34:04.951Z,19.35
2018-11-03T11:36:32.151Z,16.80
2018-11-03T11:38:59.345Z,18.02
2018-11-03T11:41:26.541Z,16.95
2018-11-03T11:43:53.835Z,17.75
2018-11-03T11:46:21.027Z,16.45
2018-11-03T11:48:48.228Z,18.60
2018-11-03T11:51:15.489Z,19.73
2018-11-03T11:53:42.632Z,17.10
2018-11-03T11:56:09.835Z,16.90
2018-11-03T11:58:37.035Z,18.02
2018-11-03T12:01:04.407Z,17.70
2018-11-03T12:03:31.611Z,18.65
2018-11-03T12:05:58.811Z,17.42
2018-11-03T12:08:26.024Z,17.75
2018-11-03T12:10:53.243Z,16.40
2018-11-03T12:13:20.448Z,19.48
2018-11-03T12:15:47.658Z,17.32
2018-11-03T12:18:14.835Z,17.67
2018-11-03T12:20:42.057Z,18.05
2018-11-03T12:23:09.242Z,17.02
2018-11-03T12:25:36.448Z,17.87
2018-11-03T12:28:03.621Z,19.27
2018-11-03T12:30:30.815Z,19.45
2018-11-03T12:32:58.013Z,16.87
2018-11-03T12:35:25.227Z,17.98
2018-11-03T12:37:52.431Z,19.52
2018-11-03T12:40:19.599Z,17.80
2018-11-03T12:42:46.843Z,17.10
2018-11-03T12:45:14.155Z,16.95
2018-11-03T12:47:41.812Z,17.12
2018-11-03T12:50:09.964Z,16.30
2018-11-03T12:52:37.168Z,17.00
2018-11-03T12:55:04.575Z,17.62
2018-11-03T12:57:31.778Z,18.80
2018-11-03T12:59:58.972Z,15.98
2018-11-03T13:02:26.175Z,17.40
2018-11-03T13:04:53.400Z,17.23
2018-11-03T13:07:20.587Z,18.15
2018-11-03T13:09:47.886Z,17.80
2018-11-03T13:12:15.028Z,18.67
2018-11-03T13:14:42.243Z,18.50
2018-11-03T13:17:09.423Z,18.50
2018-11-03T13:19:36.639Z,18.57
2018-11-03T13:22:03.826Z,16.10
2018-11-03T13:24:31.016Z,19.42
2018-11-03T13:26:58.207Z,21.55
2018-11-03T13:29:25.390Z,18.77
2018-11-03T13:31:52.594Z,17.48
2018-11-03T13:34:19.791Z,15.68
2018-11-03T13:36:46.966Z,16.23
2018-11-03T13:39:14.217Z,18.70
2018-11-03T13:41:41.398Z,17.15
2018-11-03T13:44:08.703Z,17.05
2018-11-03T13:46:35.908Z,17.15
2018-11-03T13:49:03.099Z,17.25
2018-11-03T13:51:30.273Z,19.23
2018-11-03T13:53:57.623Z,20.05
2018-11-03T13:56:24.820Z,18.17
2018-11-03T13:58:52.533Z,18.40
2018-11-03T14:01:19.776Z,17.70
2018-11-03T14:03:46.979Z,19.32
2018-11-03T14:06:14.299Z,20.32
2018-11-03T14:08:41.487Z,20.10
2018-11-03T14:11:08.741Z,19.42
2018-11-03T14:13:35.903Z,18.62
2018-11-03T14:16:03.104Z,16.62
2018-11-03T14:18:30.312Z,16.87
2018-11-03T14:20:57.547Z,18.12
2018-11-03T14:23:24.837Z,18.82
2018-11-03T14:25:52.054Z,18.55
2018-11-03T14:28:19.267Z,18.23
2018-11-03T14:30:46.435Z,19.42
2018-11-03T14:33:13.660Z,18.40
2018-11-03T14:35:40.851Z,16.97
2018-11-03T14:38:08.056Z,19.67
2018-11-03T14:40:35.235Z,18.75
2018-11-03T14:43:02.408Z,18.27
2018-11-03T14:45:29.606Z,18.90
2018-11-03T14:47:56.809Z,18.70
2018-11-03T14:50:28.302Z,18.57
2018-11-03T14:52:55.499Z,18.65
2018-11-03T14:55:22.682Z,18.00
2018-11-03T14:57:49.879Z,18.60
2018-11-03T15:00:17.164Z,16.67
2018-11-03T15:02:44.365Z,17.37
2018-11-03T15:05:12.140Z,19.30
2018-11-03T15:07:39.371Z,17.10
2018-11-03T15:10:07.232Z,20.60
2018-11-03T15:12:34.418Z,20.23
2018-11-03T15:15:01.788Z,20.37
2018-11-03T15:17:28.912Z,19.42
2018-11-03T15:19:56.108Z,21.35
2018-11-03T15:22:23.309Z,20.40
2018-11-03T15:24:50.505Z,21.50
2018-11-03T15:27:17.703Z,19.52
2018-11-03T15:29:44.893Z,19.62
2018-11-03T15:32:12.130Z,19.25
2018-11-03T15:34:39.323Z,20.90
2018-11-03T15:37:06.517Z,18.17
2018-11-03T15:39:33.713Z,17.87
2018-11-03T15:42:00.895Z,20.10
2018-11-03T15:44:28.099Z,21.05
2018-11-03T15:46:55.304Z,22.37
2018-11-03T15:49:22.496Z,21.02
2018-11-03T15:51:49.692Z,20.90
2018-11-03T15:54:16.920Z,20.35
2018-11-03T15:56:44.116Z,19.30
2018-11-03T15:59:11.328Z,19.95
2018-11-03T16:01:38.511Z,22.13
2018-11-03T16:04:05.685Z,19.82
2018-11-03T16:06:32.976Z,20.82
2018-11-03T16:09:00.163Z,18.98
2018-11-03T16:11:27.343Z,20.77
2018-11-03T16:13:54.535Z,21.10
2018-11-03T16:16:21.717Z,21.93
2018-11-03T16:18:48.904Z,19.55
2018-11-03T16:21:16.125Z,23.42
2018-11-03T16:23:43.301Z,21.97
2018-11-03T16:26:10.534Z,22.02
2018-11-03T16:28:38.038Z,22.60
2018-11-03T16:31:05.212Z,22.80
2018-11-03T16:33:32.391Z,24.00
2018-11-03T16:35:59.937Z,23.62
2018-11-03T16:38:27.217Z,24.05
2018-11-03T16:40:54.335Z,22.87
2018-11-03T16:43:21.517Z,27.07
2018-11-03T16:45:48.759Z,25.52
2018-11-03T16:48:15.923Z,24.50
2018-11-03T16:50:43.104Z,25.32
2018-11-03T16:53:10.293Z,25.77
2018-11-03T16:55:37.651Z,23.73
2018-11-03T16:58:04.889Z,23.65
2018-11-03T17:00:32.091Z,27.55
2018-11-03T17:02:59.292Z,26.57
2018-11-03T17:05:26.516Z,24.85
2018-11-03T17:07:53.694Z,24.45
2018-11-03T17:10:20.991Z,25.50
2018-11-03T17:12:48.263Z,27.13
2018-11-03T17:15:15.787Z,25.32
2018-11-03T17:17:42.982Z,26.20
2018-11-03T17:20:10.645Z,25.95
2018-11-03T17:22:38.101Z,26.90
2018-11-03T17:25:05.644Z,26.85
2018-11-03T17:27:32.805Z,27.77
2018-11-03T17:29:59.998Z,28.77
2018-11-03T17:32:27.204Z,27.90
2018-11-03T17:34:54.383Z,28.83
2018-11-03T17:37:21.593Z,26.00
2018-11-03T17:39:48.780Z,27.70
2018-11-03T17:42:15.967Z,29.55
2018-11-03T17:44:43.191Z,26.87
2018-11-03T17:47:10.374Z,30.23
2018-11-03T17:49:37.555Z,28.70
2018-11-03T17:52:04.745Z,30.85
2018-11-03T17:54:31.985Z,26.33
2018-11-03T17:56:59.131Z,28.62
2018-11-03T17:59:26.481Z,30.48
2018-11-03T18:01:53.663Z,28.77
2018-11-03T18:04:20.866Z,29.60
2018-11-03T18:06:48.047Z,29.50
2018-11-03T18:09:15.222Z,27.62
2018-11-03T18:11:42.423Z,31.05
2018-11-03T18:14:09.608Z,29.45
2018-11-03T18:16:36.816Z,30.97
2018-11-03T18:19:04.024Z,29.35
2018-11-03T18:21:31.227Z,31.60
2018-11-03T18:23:58.405Z,31.35
2018-11-03T18:26:25.638Z,31.07
2018-11-03T18:28:52.796Z,28.40
2018-11-03T18:31:19.988Z,30.35
2018-11-03T18:33:47.188Z,28.95
2018-11-03T18:36:14.371Z,31.70
2018-11-03T18:38:41.560Z,30.45
2018-11-03T18:41:08.750Z,28.45
2018-11-03T18:43:36.148Z,30.12
2018-11-03T18:46:03.500Z,31.65
2018-11-03T18:48:30.981Z,31.55
2018-11-03T18:50:58.181Z,30.90
2018-11-03T18:53:25.402Z,32.63
2018-11-03T18:55:52.605Z,30.00
2018-11-03T18:58:19.822Z,30.25
2018-11-03T19:00:47.019Z,31.10
2018-11-03T19:03:14.202Z,30.60
2018-11-03T19:05:41.394Z,32.53
2018-11-03T19:08:08.655Z,29.95
2018-11-03T19:10:35.833Z,27.27
2018-11-03T19:13:03.066Z,27.60
2018-11-03T19:15:30.235Z,28.40
2018-11-03T19:17:57.424Z,27.22
2018-11-03T19:20:24.623Z,28.20
2018-11-03T19:22:51.819Z,30.23
2018-11-03T19:25:19.018Z,29.87
2018-11-03T19:27:46.211Z,28.42
2018-11-03T19:30:14.141Z,28.45
2018-11-03T19:32:42.725Z,26.35
2018-11-03T19:35:10.135Z,28.45
2018-11-03T19:37:37.431Z,30.05
2018-11-03T19:40:04.972Z,28.73
2018-11-03T19:42:32.176Z,28.62
2018-11-03T19:44:59.390Z,27.13
2018-11-03T19:47:26.616Z,27.20
2018-11-03T19:49:53.803Z,29.02
2018-11-03T19:52:20.991Z,31.02
2018-11-03T19:54:48.230Z,31.05
2018-11-03T19:57:15.407Z,28.92
2018-11-03T19:59:42.611Z,29.42
2018-11-03T20:02:09.789Z,31.48
2018-11-03T20:04:36.966Z,31.15
2018-11-03T20:07:04.159Z,30.65
2018-11-03T20:09:31.345Z,32.55
2018-11-03T20:11:58.591Z,32.53
2018-11-03T20:14:25.801Z,33.90
2018-11-03T20:16:52.982Z,32.35
2018-11-03T20:19:20.208Z,32.60
2018-11-03T20:21:47.385Z,32.05
2018-11-03T20:24:14.564Z,32.63
2018-11-03T20:26:41.773Z,31.95
2018-11-03T20:29:08.975Z,30.60
2018-11-03T20:31:36.207Z,32.40
2018-11-03T20:34:03.472Z,31.12
2018-11-03T20:36:30.647Z,31.62
2018-11-03T20:38:57.873Z,32.80
2018-11-03T20:41:25.105Z,32.60
2018-11-03T20:43:52.282Z,31.20
2018-11-03T20:46:19.478Z,29.98
2018-11-03T20:48:46.692Z,31.07
2018-11-03T20:51:13.866Z,31.68
2018-11-03T20:53:41.385Z,33.08
2018-11-03T20:56:08.916Z,31.30
2018-11-03T20:58:36.103Z,30.57
2018-11-03T21:01:03.514Z,31.35
2018-11-03T21:03:30.745Z,28.05
2018-11-03T21:05:57.927Z,33.38
2018-11-03T21:08:25.232Z,31.17
2018-11-03T21:10:52.429Z,31.85
2018-11-03T21:13:19.632Z,28.60
2018-11-03T21:15:47.114Z,29.52
2018-11-03T21:18:14.289Z,32.35
2018-11-03T21:20:41.483Z,31.33
2018-11-03T21:23:08.765Z,32.25
2018-11-03T21:25:36.176Z,33.08
2018-11-03T21:28:03.368Z,33.65
2018-11-03T21:30:30.549Z,31.65
2018-11-03T21:32:57.830Z,32.70
2018-11-03T21:35:25.007Z,32.95
2018-11-03T21:37:52.203Z,31.73
2018-11-03T21:40:19.382Z,30.97
2018-11-03T21:42:46.575Z,32.55
2018-11-03T21:45:13.779Z,32.65
2018-11-03T21:47:40.967Z,31.55
2018-11-03T21:50:08.423Z,34.00
2018-11-03T21:52:35.624Z,32.70
2018-11-03T21:55:02.821Z,31.65
2018-11-03T21:57:30.029Z,34.98
2018-11-03T21:59:57.220Z,33.45
2018-11-03T22:02:24.423Z,32.10
2018-11-03T22:04:51.635Z,33.60
2018-11-03T22:07:18.827Z,33.40
2018-11-03T22:09:46.015Z,33.90
2018-11-03T22:12:13.211Z,33.35
2018-11-03T22:14:40.402Z,31.73
2018-11-03T22:17:07.603Z,32.13
2018-11-03T22:19:35.046Z,32.70
2018-11-03T22:22:02.223Z,33.20
2018-11-03T22:24:29.419Z,28.47
2018-11-03T22:26:56.604Z,28.62
2018-11-03T22:29:23.782Z,27.45
2018-11-03T22:31:50.975Z,30.40
2018-11-03T22:34:18.167Z,27.95
2018-11-03T22:36:45.354Z,23.62
2018-11-03T22:39:12.610Z,24.10
2018-11-03T22:41:39.801Z,25.88
2018-11-03T22:44:06.998Z,21.55
2018-11-03T22:46:34.328Z,23.12
2018-11-03T22:49:01.612Z,21.70
2018-11-03T22:51:28.890Z,21.65
2018-11-03T22:53:56.024Z,20.60
2018-11-03T22:56:23.218Z,22.25
2018-11-03T22:58:50.433Z,22.58
2018-11-03T23:01:17.621Z,22.55
2018-11-03T23:03:44.866Z,21.40
2018-11-03T23:06:12.014Z,20.52
2018-11-03T23:08:39.199Z,22.02
2018-11-03T23:11:06.416Z,21.97
2018-11-03T23:13:33.633Z,20.10
2018-11-03T23:16:00.813Z,22.40
2018-11-03T23:18:28.062Z,20.97
2018-11-03T23:20:55.210Z,20.70
2018-11-03T23:23:22.390Z,22.05
2018-11-03T23:25:49.599Z,21.07
2018-11-03T23:28:16.844Z,21.60
2018-11-03T23:30:44.026Z,21.25
2018-11-03T23:33:11.206Z,19.90
2018-11-03T23:35:38.400Z,20.55
2018-11-03T23:38:05.716Z,18.67
2018-11-03T23:40:33.022Z,22.50
2018-11-03T23:43:00.196Z,20.23
2018-11-03T23:45:27.376Z,20.12
2018-11-03T23:47:54.579Z,20.23
2018-11-03T23:50:21.773Z,21.55
2018-11-03T23:52:48.961Z,20.35
2018-11-03T23:55:16.151Z,20.00
2018-11-03T23:57:43.371Z,19.40
